sensor_id;sensor_type;location;lat;lon;timestamp;P1;durP1;ratioP1;P2;durP2;ratioP2
37157;SDS011;23050;51.776;22.638;2024-02-23T00:02:17;12.23;;;6.55;;
37157;SDS011;23050;51.776;22.638;2024-02-23T00:04:43;14.13;;;7.32;;
37157;SDS011;23050;51.776;22.638;2024-02-23T00:07:09;11.52;;;7.45;;
37157;SDS011;23050;51.776;22.638;2024-02-23T00:09:35;10.32;;;7.32;;
37157;SDS011;23050;51.776;22.638;2024-02-23T00:12:01;10.25;;;6.72;;
37157;SDS011;23050;51.776;22.638;2024-02-23T00:14:27;10.45;;;6.50;;
37157;SDS011;23050;51.776;22.638;2024-02-23T00:16:53;11.20;;;6.68;;
37157;SDS011;23050;51.776;22.638;2024-02-23T00:19:18;14.23;;;6.20;;
37157;SDS011;23050;51.776;22.638;2024-02-23T00:21:45;10.18;;;6.78;;
37157;SDS011;23050;51.776;22.638;2024-02-23T00:24:15;12.25;;;7.47;;
37157;SDS011;23050;51.776;22.638;2024-02-23T00:26:42;11.57;;;6.88;;
37157;SDS011;23050;51.776;22.638;2024-02-23T00:29:08;11.32;;;6.68;;
37157;SDS011;23050;51.776;22.638;2024-02-23T00:31:34;10.40;;;7.07;;
37157;SDS011;23050;51.776;22.638;2024-02-23T00:34:02;11.05;;;6.70;;
37157;SDS011;23050;51.776;22.638;2024-02-23T00:36:28;11.93;;;7.05;;
37157;SDS011;23050;51.776;22.638;2024-02-23T00:38:54;9.25;;;6.50;;
37157;SDS011;23050;51.776;22.638;2024-02-23T00:41:19;12.25;;;7.65;;
37157;SDS011;23050;51.776;22.638;2024-02-23T00:43:45;12.30;;;6.90;;
37157;SDS011;23050;51.776;22.638;2024-02-23T00:46:12;9.85;;;6.85;;
37157;SDS011;23050;51.776;22.638;2024-02-23T00:48:39;10.27;;;6.15;;
37157;SDS011;23050;51.776;22.638;2024-02-23T00:51:05;14.20;;;7.38;;
37157;SDS011;23050;51.776;22.638;2024-02-23T00:53:31;20.20;;;9.35;;
37157;SDS011;23050;51.776;22.638;2024-02-23T00:55:57;16.33;;;8.90;;
37157;SDS011;23050;51.776;22.638;2024-02-23T00:58:23;11.55;;;7.95;;
37157;SDS011;23050;51.776;22.638;2024-02-23T01:00:48;10.80;;;6.07;;
37157;SDS011;23050;51.776;22.638;2024-02-23T01:03:14;9.45;;;6.70;;
37157;SDS011;23050;51.776;22.638;2024-02-23T01:05:40;11.57;;;6.47;;
37157;SDS011;23050;51.776;22.638;2024-02-23T01:08:07;10.10;;;7.00;;
37157;SDS011;23050;51.776;22.638;2024-02-23T01:10:33;9.90;;;6.57;;
37157;SDS011;23050;51.776;22.638;2024-02-23T01:12:59;9.75;;;6.80;;
37157;SDS011;23050;51.776;22.638;2024-02-23T01:15:25;7.78;;;5.68;;
37157;SDS011;23050;51.776;22.638;2024-02-23T01:17:50;8.68;;;5.90;;
37157;SDS011;23050;51.776;22.638;2024-02-23T01:20:16;9.07;;;5.75;;
37157;SDS011;23050;51.776;22.638;2024-02-23T01:22:42;8.30;;;6.22;;
37157;SDS011;23050;51.776;22.638;2024-02-23T01:25:08;8.98;;;6.32;;
37157;SDS011;23050;51.776;22.638;2024-02-23T01:27:33;9.15;;;6.40;;
37157;SDS011;23050;51.776;22.638;2024-02-23T01:29:59;10.60;;;7.20;;
37157;SDS011;23050;51.776;22.638;2024-02-23T01:32:25;11.18;;;6.53;;
37157;SDS011;23050;51.776;22.638;2024-02-23T01:34:50;10.07;;;6.38;;
37157;SDS011;23050;51.776;22.638;2024-02-23T01:37:16;8.25;;;5.38;;
37157;SDS011;23050;51.776;22.638;2024-02-23T01:39:42;7.07;;;5.10;;
37157;SDS011;23050;51.776;22.638;2024-02-23T01:42:08;8.63;;;6.15;;
37157;SDS011;23050;51.776;22.638;2024-02-23T01:44:34;9.40;;;6.38;;
37157;SDS011;23050;51.776;22.638;2024-02-23T01:46:59;8.30;;;6.03;;
37157;SDS011;23050;51.776;22.638;2024-02-23T01:49:25;9.60;;;6.28;;
37157;SDS011;23050;51.776;22.638;2024-02-23T01:51:55;11.07;;;6.28;;
37157;SDS011;23050;51.776;22.638;2024-02-23T01:54:22;8.20;;;5.97;;
37157;SDS011;23050;51.776;22.638;2024-02-23T01:56:48;8.98;;;6.47;;
37157;SDS011;23050;51.776;22.638;2024-02-23T01:59:14;8.13;;;5.35;;
37157;SDS011;23050;51.776;22.638;2024-02-23T02:01:42;8.23;;;6.03;;
37157;SDS011;23050;51.776;22.638;2024-02-23T02:04:08;8.40;;;5.38;;
37157;SDS011;23050;51.776;22.638;2024-02-23T02:06:34;9.60;;;6.75;;
37157;SDS011;23050;51.776;22.638;2024-02-23T02:08:59;10.57;;;6.47;;
37157;SDS011;23050;51.776;22.638;2024-02-23T02:11:25;9.05;;;6.63;;
37157;SDS011;23050;51.776;22.638;2024-02-23T02:13:51;8.98;;;6.50;;
37157;SDS011;23050;51.776;22.638;2024-02-23T02:16:16;8.10;;;5.97;;
37157;SDS011;23050;51.776;22.638;2024-02-23T02:18:42;10.85;;;6.85;;
37157;SDS011;23050;51.776;22.638;2024-02-23T02:21:09;8.40;;;5.80;;
37157;SDS011;23050;51.776;22.638;2024-02-23T02:23:35;9.68;;;6.28;;
37157;SDS011;23050;51.776;22.638;2024-02-23T02:26:02;8.40;;;6.53;;
37157;SDS011;23050;51.776;22.638;2024-02-23T02:28:28;9.32;;;6.20;;
37157;SDS011;23050;51.776;22.638;2024-02-23T02:30:53;8.98;;;6.15;;
37157;SDS011;23050;51.776;22.638;2024-02-23T02:33:20;7.50;;;5.28;;
37157;SDS011;23050;51.776;22.638;2024-02-23T02:35:46;10.55;;;6.00;;
37157;SDS011;23050;51.776;22.638;2024-02-23T02:38:12;8.57;;;6.25;;
37157;SDS011;23050;51.776;22.638;2024-02-23T02:40:38;10.20;;;6.18;;
37157;SDS011;23050;51.776;22.638;2024-02-23T02:43:04;10.38;;;6.35;;
37157;SDS011;23050;51.776;22.638;2024-02-23T02:45:30;8.60;;;6.50;;
37157;SDS011;23050;51.776;22.638;2024-02-23T02:47:56;8.35;;;5.95;;
37157;SDS011;23050;51.776;22.638;2024-02-23T02:50:22;11.00;;;6.75;;
37157;SDS011;23050;51.776;22.638;2024-02-23T02:52:47;7.07;;;5.13;;
37157;SDS011;23050;51.776;22.638;2024-02-23T02:55:13;7.45;;;5.50;;
37157;SDS011;23050;51.776;22.638;2024-02-23T02:57:39;8.55;;;6.10;;
37157;SDS011;23050;51.776;22.638;2024-02-23T03:00:05;8.05;;;5.70;;
37157;SDS011;23050;51.776;22.638;2024-02-23T03:02:40;7.90;;;5.43;;
37157;SDS011;23050;51.776;22.638;2024-02-23T03:05:05;8.70;;;4.95;;
37157;SDS011;23050;51.776;22.638;2024-02-23T03:07:31;7.97;;;5.43;;
37157;SDS011;23050;51.776;22.638;2024-02-23T03:09:57;9.02;;;5.55;;
37157;SDS011;23050;51.776;22.638;2024-02-23T03:12:22;7.22;;;5.38;;
37157;SDS011;23050;51.776;22.638;2024-02-23T03:14:48;8.55;;;5.07;;
37157;SDS011;23050;51.776;22.638;2024-02-23T03:17:14;8.85;;;5.65;;
37157;SDS011;23050;51.776;22.638;2024-02-23T03:19:40;9.93;;;5.70;;
37157;SDS011;23050;51.776;22.638;2024-02-23T03:22:06;6.82;;;5.20;;
37157;SDS011;23050;51.776;22.638;2024-02-23T03:24:31;8.38;;;5.43;;
37157;SDS011;23050;51.776;22.638;2024-02-23T03:26:57;8.07;;;5.45;;
37157;SDS011;23050;51.776;22.638;2024-02-23T03:29:22;8.32;;;5.10;;
37157;SDS011;23050;51.776;22.638;2024-02-23T03:31:54;7.15;;;4.93;;
37157;SDS011;23050;51.776;22.638;2024-02-23T03:34:20;9.43;;;5.60;;
37157;SDS011;23050;51.776;22.638;2024-02-23T03:36:46;7.07;;;5.10;;
37157;SDS011;23050;51.776;22.638;2024-02-23T03:39:12;8.07;;;4.75;;
37157;SDS011;23050;51.776;22.638;2024-02-23T03:41:38;7.50;;;5.10;;
37157;SDS011;23050;51.776;22.638;2024-02-23T03:44:04;7.72;;;4.85;;
37157;SDS011;23050;51.776;22.638;2024-02-23T03:46:29;7.68;;;5.10;;
37157;SDS011;23050;51.776;22.638;2024-02-23T03:48:55;7.30;;;4.88;;
37157;SDS011;23050;51.776;22.638;2024-02-23T03:51:22;7.47;;;5.50;;
37157;SDS011;23050;51.776;22.638;2024-02-23T03:53:48;7.13;;;4.75;;
37157;SDS011;23050;51.776;22.638;2024-02-23T03:56:14;7.88;;;5.10;;
37157;SDS011;23050;51.776;22.638;2024-02-23T03:58:39;7.65;;;5.13;;
37157;SDS011;23050;51.776;22.638;2024-02-23T04:01:05;7.18;;;5.00;;
37157;SDS011;23050;51.776;22.638;2024-02-23T04:03:30;8.63;;;5.40;;
37157;SDS011;23050;51.776;22.638;2024-02-23T04:05:56;8.88;;;4.85;;
37157;SDS011;23050;51.776;22.638;2024-02-23T04:08:22;9.73;;;5.25;;
37157;SDS011;23050;51.776;22.638;2024-02-23T04:10:47;7.70;;;5.20;;
37157;SDS011;23050;51.776;22.638;2024-02-23T04:13:13;7.90;;;4.85;;
37157;SDS011;23050;51.776;22.638;2024-02-23T04:15:39;7.60;;;4.72;;
37157;SDS011;23050;51.776;22.638;2024-02-23T04:18:05;7.40;;;5.03;;
37157;SDS011;23050;51.776;22.638;2024-02-23T04:20:31;8.30;;;5.35;;
37157;SDS011;23050;51.776;22.638;2024-02-23T04:22:57;7.80;;;5.75;;
37157;SDS011;23050;51.776;22.638;2024-02-23T04:25:23;8.40;;;5.18;;
37157;SDS011;23050;51.776;22.638;2024-02-23T04:27:49;7.97;;;5.65;;
37157;SDS011;23050;51.776;22.638;2024-02-23T04:30:15;9.32;;;5.88;;
37157;SDS011;23050;51.776;22.638;2024-02-23T04:32:41;8.98;;;6.03;;
37157;SDS011;23050;51.776;22.638;2024-02-23T04:35:07;10.10;;;6.28;;
37157;SDS011;23050;51.776;22.638;2024-02-23T04:37:33;6.97;;;5.00;;
37157;SDS011;23050;51.776;22.638;2024-02-23T04:39:59;8.85;;;6.32;;
37157;SDS011;23050;51.776;22.638;2024-02-23T04:42:25;7.93;;;5.43;;
37157;SDS011;23050;51.776;22.638;2024-02-23T04:44:50;7.78;;;5.97;;
37157;SDS011;23050;51.776;22.638;2024-02-23T04:47:19;7.95;;;5.30;;
37157;SDS011;23050;51.776;22.638;2024-02-23T04:49:45;7.43;;;5.65;;
37157;SDS011;23050;51.776;22.638;2024-02-23T04:52:10;7.80;;;5.63;;
37157;SDS011;23050;51.776;22.638;2024-02-23T04:54:36;8.57;;;6.20;;
37157;SDS011;23050;51.776;22.638;2024-02-23T04:57:02;9.90;;;6.43;;
37157;SDS011;23050;51.776;22.638;2024-02-23T04:59:27;7.15;;;5.72;;
37157;SDS011;23050;51.776;22.638;2024-02-23T05:01:55;8.35;;;6.15;;
37157;SDS011;23050;51.776;22.638;2024-02-23T05:04:20;10.95;;;7.00;;
37157;SDS011;23050;51.776;22.638;2024-02-23T05:06:46;9.00;;;6.63;;
37157;SDS011;23050;51.776;22.638;2024-02-23T05:09:12;7.47;;;5.60;;
37157;SDS011;23050;51.776;22.638;2024-02-23T05:11:38;8.32;;;5.78;;
37157;SDS011;23050;51.776;22.638;2024-02-23T05:14:04;7.97;;;6.38;;
37157;SDS011;23050;51.776;22.638;2024-02-23T05:16:30;10.15;;;6.78;;
37157;SDS011;23050;51.776;22.638;2024-02-23T05:18:56;10.55;;;5.90;;
37157;SDS011;23050;51.776;22.638;2024-02-23T05:21:22;9.13;;;6.78;;
37157;SDS011;23050;51.776;22.638;2024-02-23T05:23:47;9.77;;;6.90;;
37157;SDS011;23050;51.776;22.638;2024-02-23T05:26:13;12.02;;;7.25;;
37157;SDS011;23050;51.776;22.638;2024-02-23T05:28:38;11.20;;;6.22;;
37157;SDS011;23050;51.776;22.638;2024-02-23T05:31:04;10.05;;;6.85;;
37157;SDS011;23050;51.776;22.638;2024-02-23T05:33:30;11.35;;;6.60;;
37157;SDS011;23050;51.776;22.638;2024-02-23T05:35:55;13.88;;;7.78;;
37157;SDS011;23050;51.776;22.638;2024-02-23T05:38:21;12.63;;;8.05;;
37157;SDS011;23050;51.776;22.638;2024-02-23T05:40:47;10.82;;;8.13;;
37157;SDS011;23050;51.776;22.638;2024-02-23T05:43:13;14.85;;;8.15;;
37157;SDS011;23050;51.776;22.638;2024-02-23T05:45:39;10.63;;;8.43;;
37157;SDS011;23050;51.776;22.638;2024-02-23T05:48:05;12.20;;;9.15;;
37157;SDS011;23050;51.776;22.638;2024-02-23T05:50:31;12.90;;;8.82;;
37157;SDS011;23050;51.776;22.638;2024-02-23T05:52:57;13.48;;;8.43;;
37157;SDS011;23050;51.776;22.638;2024-02-23T05:55:23;11.52;;;8.45;;
37157;SDS011;23050;51.776;22.638;2024-02-23T05:57:49;11.75;;;8.82;;
37157;SDS011;23050;51.776;22.638;2024-02-23T06:00:16;23.73;;;8.10;;
37157;SDS011;23050;51.776;22.638;2024-02-23T06:02:44;14.93;;;10.35;;
37157;SDS011;23050;51.776;22.638;2024-02-23T06:05:10;12.70;;;8.55;;
37157;SDS011;23050;51.776;22.638;2024-02-23T06:07:37;11.68;;;8.18;;
37157;SDS011;23050;51.776;22.638;2024-02-23T06:10:02;10.32;;;7.97;;
37157;SDS011;23050;51.776;22.638;2024-02-23T06:12:28;14.45;;;8.38;;
37157;SDS011;23050;51.776;22.638;2024-02-23T06:14:54;13.15;;;7.95;;
37157;SDS011;23050;51.776;22.638;2024-02-23T06:17:21;14.75;;;8.32;;
37157;SDS011;23050;51.776;22.638;2024-02-23T06:19:48;15.13;;;8.38;;
37157;SDS011;23050;51.776;22.638;2024-02-23T06:22:13;10.98;;;7.30;;
37157;SDS011;23050;51.776;22.638;2024-02-23T06:24:42;10.40;;;7.22;;
37157;SDS011;23050;51.776;22.638;2024-02-23T06:27:07;14.55;;;7.85;;
37157;SDS011;23050;51.776;22.638;2024-02-23T06:29:33;10.55;;;8.13;;
37157;SDS011;23050;51.776;22.638;2024-02-23T06:31:59;14.48;;;8.88;;
37157;SDS011;23050;51.776;22.638;2024-02-23T06:34:26;13.27;;;8.35;;
37157;SDS011;23050;51.776;22.638;2024-02-23T06:36:52;12.07;;;8.32;;
37157;SDS011;23050;51.776;22.638;2024-02-23T06:39:17;12.75;;;8.88;;
37157;SDS011;23050;51.776;22.638;2024-02-23T06:41:43;10.80;;;7.75;;
37157;SDS011;23050;51.776;22.638;2024-02-23T06:44:09;11.30;;;7.80;;
37157;SDS011;23050;51.776;22.638;2024-02-23T06:46:34;10.25;;;7.80;;
37157;SDS011;23050;51.776;22.638;2024-02-23T06:49:00;12.25;;;8.38;;
37157;SDS011;23050;51.776;22.638;2024-02-23T06:51:25;12.07;;;8.43;;
37157;SDS011;23050;51.776;22.638;2024-02-23T06:53:51;11.27;;;8.68;;
37157;SDS011;23050;51.776;22.638;2024-02-23T06:56:17;12.38;;;8.25;;
37157;SDS011;23050;51.776;22.638;2024-02-23T06:58:42;14.65;;;8.98;;
37157;SDS011;23050;51.776;22.638;2024-02-23T07:01:08;14.02;;;8.90;;
37157;SDS011;23050;51.776;22.638;2024-02-23T07:03:36;13.20;;;8.88;;
37157;SDS011;23050;51.776;22.638;2024-02-23T07:06:02;13.82;;;8.82;;
37157;SDS011;23050;51.776;22.638;2024-02-23T07:08:28;11.85;;;8.38;;
37157;SDS011;23050;51.776;22.638;2024-02-23T07:10:55;13.07;;;7.82;;
37157;SDS011;23050;51.776;22.638;2024-02-23T07:13:20;12.45;;;8.07;;
37157;SDS011;23050;51.776;22.638;2024-02-23T07:15:46;15.75;;;9.55;;
37157;SDS011;23050;51.776;22.638;2024-02-23T07:18:11;12.98;;;8.77;;
37157;SDS011;23050;51.776;22.638;2024-02-23T07:20:37;12.10;;;8.27;;
37157;SDS011;23050;51.776;22.638;2024-02-23T07:23:04;12.02;;;7.50;;
37157;SDS011;23050;51.776;22.638;2024-02-23T07:25:30;11.35;;;7.03;;
37157;SDS011;23050;51.776;22.638;2024-02-23T07:27:56;12.25;;;8.95;;
37157;SDS011;23050;51.776;22.638;2024-02-23T07:30:21;16.10;;;9.43;;
37157;SDS011;23050;51.776;22.638;2024-02-23T07:32:48;13.30;;;8.00;;
37157;SDS011;23050;51.776;22.638;2024-02-23T07:35:14;14.30;;;9.05;;
37157;SDS011;23050;51.776;22.638;2024-02-23T07:37:39;23.73;;;11.07;;
37157;SDS011;23050;51.776;22.638;2024-02-23T07:40:05;23.00;;;11.68;;
37157;SDS011;23050;51.776;22.638;2024-02-23T07:42:32;16.17;;;9.38;;
37157;SDS011;23050;51.776;22.638;2024-02-23T07:44:58;18.27;;;10.65;;
37157;SDS011;23050;51.776;22.638;2024-02-23T07:47:23;21.95;;;11.80;;
37157;SDS011;23050;51.776;22.638;2024-02-23T07:49:52;18.77;;;9.25;;
37157;SDS011;23050;51.776;22.638;2024-02-23T07:52:18;21.30;;;11.27;;
37157;SDS011;23050;51.776;22.638;2024-02-23T07:54:44;18.23;;;11.00;;
37157;SDS011;23050;51.776;22.638;2024-02-23T07:57:10;13.00;;;8.48;;
37157;SDS011;23050;51.776;22.638;2024-02-23T07:59:35;15.05;;;9.63;;
37157;SDS011;23050;51.776;22.638;2024-02-23T08:02:01;13.77;;;7.93;;
37157;SDS011;23050;51.776;22.638;2024-02-23T08:04:27;17.38;;;10.60;;
37157;SDS011;23050;51.776;22.638;2024-02-23T08:06:52;14.93;;;9.85;;
37157;SDS011;23050;51.776;22.638;2024-02-23T08:09:18;16.05;;;10.32;;
37157;SDS011;23050;51.776;22.638;2024-02-23T08:11:43;20.48;;;11.00;;
37157;SDS011;23050;51.776;22.638;2024-02-23T08:14:10;18.13;;;10.07;;
37157;SDS011;23050;51.776;22.638;2024-02-23T08:16:36;20.10;;;10.57;;
37157;SDS011;23050;51.776;22.638;2024-02-23T08:19:02;17.70;;;10.30;;
37157;SDS011;23050;51.776;22.638;2024-02-23T08:21:27;17.92;;;10.20;;
37157;SDS011;23050;51.776;22.638;2024-02-23T08:23:53;15.98;;;9.73;;
37157;SDS011;23050;51.776;22.638;2024-02-23T08:26:18;15.80;;;10.15;;
37157;SDS011;23050;51.776;22.638;2024-02-23T08:28:44;16.27;;;10.27;;
37157;SDS011;23050;51.776;22.638;2024-02-23T08:31:09;15.63;;;10.32;;
37157;SDS011;23050;51.776;22.638;2024-02-23T08:33:35;14.80;;;9.63;;
37157;SDS011;23050;51.776;22.638;2024-02-23T08:36:01;14.43;;;10.07;;
37157;SDS011;23050;51.776;22.638;2024-02-23T08:38:30;17.42;;;10.32;;
37157;SDS011;23050;51.776;22.638;2024-02-23T08:40:57;14.55;;;10.10;;
37157;SDS011;23050;51.776;22.638;2024-02-23T08:43:24;17.33;;;9.20;;
37157;SDS011;23050;51.776;22.638;2024-02-23T08:45:50;16.35;;;9.93;;
37157;SDS011;23050;51.776;22.638;2024-02-23T08:48:16;16.08;;;10.30;;
37157;SDS011;23050;51.776;22.638;2024-02-23T08:50:43;15.52;;;9.57;;
37157;SDS011;23050;51.776;22.638;2024-02-23T08:53:08;17.67;;;10.30;;
37157;SDS011;23050;51.776;22.638;2024-02-23T08:55:34;19.83;;;11.32;;
37157;SDS011;23050;51.776;22.638;2024-02-23T08:58:00;13.07;;;8.88;;
37157;SDS011;23050;51.776;22.638;2024-02-23T09:00:26;17.35;;;9.98;;
37157;SDS011;23050;51.776;22.638;2024-02-23T09:02:51;13.93;;;9.73;;
37157;SDS011;23050;51.776;22.638;2024-02-23T09:05:17;14.30;;;10.65;;
37157;SDS011;23050;51.776;22.638;2024-02-23T09:07:42;14.48;;;9.45;;
37157;SDS011;23050;51.776;22.638;2024-02-23T09:10:08;14.57;;;10.48;;
37157;SDS011;23050;51.776;22.638;2024-02-23T09:12:34;15.15;;;10.57;;
37157;SDS011;23050;51.776;22.638;2024-02-23T09:14:59;19.25;;;11.93;;
37157;SDS011;23050;51.776;22.638;2024-02-23T09:17:25;18.73;;;11.25;;
37157;SDS011;23050;51.776;22.638;2024-02-23T09:19:51;15.40;;;10.60;;
37157;SDS011;23050;51.776;22.638;2024-02-23T09:22:16;16.40;;;11.32;;
37157;SDS011;23050;51.776;22.638;2024-02-23T09:24:42;16.40;;;10.20;;
37157;SDS011;23050;51.776;22.638;2024-02-23T09:27:08;24.95;;;13.07;;
37157;SDS011;23050;51.776;22.638;2024-02-23T09:29:34;21.63;;;12.45;;
37157;SDS011;23050;51.776;22.638;2024-02-23T09:31:59;19.20;;;12.02;;
37157;SDS011;23050;51.776;22.638;2024-02-23T09:34:26;18.85;;;12.40;;
37157;SDS011;23050;51.776;22.638;2024-02-23T09:36:52;22.27;;;12.95;;
37157;SDS011;23050;51.776;22.638;2024-02-23T09:39:17;22.23;;;11.70;;
37157;SDS011;23050;51.776;22.638;2024-02-23T09:41:45;21.95;;;13.35;;
37157;SDS011;23050;51.776;22.638;2024-02-23T09:46:41;20.05;;;12.38;;
37157;SDS011;23050;51.776;22.638;2024-02-23T09:49:08;41.65;;;20.25;;
37157;SDS011;23050;51.776;22.638;2024-02-23T09:51:36;25.70;;;15.95;;
37157;SDS011;23050;51.776;22.638;2024-02-23T09:54:03;31.00;;;17.55;;
37157;SDS011;23050;51.776;22.638;2024-02-23T09:56:29;24.02;;;14.15;;
37157;SDS011;23050;51.776;22.638;2024-02-23T09:58:56;20.20;;;13.50;;
37157;SDS011;23050;51.776;22.638;2024-02-23T10:01:27;30.52;;;18.42;;
37157;SDS011;23050;51.776;22.638;2024-02-23T10:03:56;22.30;;;15.93;;
37157;SDS011;23050;51.776;22.638;2024-02-23T10:06:23;30.67;;;16.60;;
37157;SDS011;23050;51.776;22.638;2024-02-23T10:08:52;33.97;;;17.85;;
37157;SDS011;23050;51.776;22.638;2024-02-23T10:11:21;21.10;;;12.70;;
37157;SDS011;23050;51.776;22.638;2024-02-23T10:13:48;22.23;;;15.10;;
37157;SDS011;23050;51.776;22.638;2024-02-23T10:16:19;21.15;;;14.20;;
37157;SDS011;23050;51.776;22.638;2024-02-23T10:18:46;22.42;;;15.63;;
37157;SDS011;23050;51.776;22.638;2024-02-23T10:21:13;24.20;;;15.10;;
37157;SDS011;23050;51.776;22.638;2024-02-23T10:23:40;20.83;;;13.35;;
37157;SDS011;23050;51.776;22.638;2024-02-23T10:26:06;23.83;;;14.48;;
37157;SDS011;23050;51.776;22.638;2024-02-23T10:28:34;20.23;;;13.15;;
37157;SDS011;23050;51.776;22.638;2024-02-23T10:31:00;18.02;;;13.23;;
37157;SDS011;23050;51.776;22.638;2024-02-23T10:33:26;19.05;;;13.38;;
37157;SDS011;23050;51.776;22.638;2024-02-23T10:35:54;20.25;;;14.13;;
37157;SDS011;23050;51.776;22.638;2024-02-23T10:38:25;21.00;;;13.43;;
37157;SDS011;23050;51.776;22.638;2024-02-23T10:40:51;16.02;;;11.85;;
37157;SDS011;23050;51.776;22.638;2024-02-23T10:43:20;17.65;;;12.32;;
37157;SDS011;23050;51.776;22.638;2024-02-23T10:45:57;18.48;;;11.93;;
37157;SDS011;23050;51.776;22.638;2024-02-23T10:48:27;21.75;;;13.32;;
37157;SDS011;23050;51.776;22.638;2024-02-23T10:50:55;16.05;;;11.50;;
37157;SDS011;23050;51.776;22.638;2024-02-23T10:53:23;17.00;;;12.30;;
37157;SDS011;23050;51.776;22.638;2024-02-23T10:55:51;17.20;;;11.70;;
37157;SDS011;23050;51.776;22.638;2024-02-23T10:58:21;18.65;;;11.63;;
37157;SDS011;23050;51.776;22.638;2024-02-23T11:00:47;14.35;;;11.05;;
37157;SDS011;23050;51.776;22.638;2024-02-23T11:03:13;17.27;;;12.45;;
37157;SDS011;23050;51.776;22.638;2024-02-23T11:05:40;19.60;;;13.38;;
37157;SDS011;23050;51.776;22.638;2024-02-23T11:08:05;17.88;;;11.80;;
37157;SDS011;23050;51.776;22.638;2024-02-23T11:10:31;16.33;;;11.73;;
37157;SDS011;23050;51.776;22.638;2024-02-23T11:13:18;21.60;;;13.55;;
37157;SDS011;23050;51.776;22.638;2024-02-23T11:16:00;19.08;;;12.57;;
37157;SDS011;23050;51.776;22.638;2024-02-23T11:18:35;21.77;;;13.52;;
37157;SDS011;23050;51.776;22.638;2024-02-23T11:21:04;22.60;;;15.50;;
37157;SDS011;23050;51.776;22.638;2024-02-23T11:23:39;22.77;;;13.55;;
37157;SDS011;23050;51.776;22.638;2024-02-23T11:26:09;18.15;;;12.02;;
37157;SDS011;23050;51.776;22.638;2024-02-23T11:28:42;15.30;;;12.33;;
37157;SDS011;23050;51.776;22.638;2024-02-23T11:31:19;18.23;;;13.25;;
37157;SDS011;23050;51.776;22.638;2024-02-23T11:33:49;19.33;;;12.40;;
37157;SDS011;23050;51.776;22.638;2024-02-23T11:36:34;54.00;;;28.95;;
37157;SDS011;23050;51.776;22.638;2024-02-23T11:39:01;37.58;;;28.63;;
37157;SDS011;23050;51.776;22.638;2024-02-23T11:41:27;37.13;;;22.58;;
37157;SDS011;23050;51.776;22.638;2024-02-23T11:43:55;44.83;;;31.52;;
37157;SDS011;23050;51.776;22.638;2024-02-23T11:46:23;26.45;;;18.38;;
37157;SDS011;23050;51.776;22.638;2024-02-23T11:48:48;34.05;;;28.15;;
37157;SDS011;23050;51.776;22.638;2024-02-23T11:51:20;36.70;;;19.88;;
37157;SDS011;23050;51.776;22.638;2024-02-23T11:53:47;35.60;;;22.83;;
37157;SDS011;23050;51.776;22.638;2024-02-23T11:56:14;18.77;;;13.50;;
37157;SDS011;23050;51.776;22.638;2024-02-23T11:58:40;20.35;;;15.98;;
37157;SDS011;23050;51.776;22.638;2024-02-23T12:01:06;17.40;;;14.23;;
37157;SDS011;23050;51.776;22.638;2024-02-23T12:03:33;20.50;;;14.05;;
37157;SDS011;23050;51.776;22.638;2024-02-23T12:05:59;21.58;;;15.15;;
37157;SDS011;23050;51.776;22.638;2024-02-23T12:08:26;19.52;;;14.55;;
37157;SDS011;23050;51.776;22.638;2024-02-23T12:10:55;20.17;;;14.50;;
37157;SDS011;23050;51.776;22.638;2024-02-23T12:13:21;20.77;;;13.43;;
37157;SDS011;23050;51.776;22.638;2024-02-23T12:15:48;20.33;;;14.45;;
37157;SDS011;23050;51.776;22.638;2024-02-23T12:18:17;20.80;;;13.68;;
37157;SDS011;23050;51.776;22.638;2024-02-23T12:20:47;21.83;;;14.65;;
37157;SDS011;23050;51.776;22.638;2024-02-23T12:23:12;26.85;;;16.98;;
37157;SDS011;23050;51.776;22.638;2024-02-23T12:25:38;38.45;;;23.45;;
37157;SDS011;23050;51.776;22.638;2024-02-23T12:28:04;35.58;;;24.92;;
37157;SDS011;23050;51.776;22.638;2024-02-23T12:30:30;25.08;;;17.80;;
37157;SDS011;23050;51.776;22.638;2024-02-23T12:33:04;21.05;;;15.88;;
37157;SDS011;23050;51.776;22.638;2024-02-23T12:35:32;22.15;;;15.07;;
37157;SDS011;23050;51.776;22.638;2024-02-23T12:38:00;21.73;;;14.88;;
37157;SDS011;23050;51.776;22.638;2024-02-23T12:40:25;31.27;;;19.75;;
37157;SDS011;23050;51.776;22.638;2024-02-23T12:42:51;22.08;;;16.10;;
37157;SDS011;23050;51.776;22.638;2024-02-23T12:45:17;20.83;;;15.52;;
37157;SDS011;23050;51.776;22.638;2024-02-23T12:47:43;37.63;;;21.98;;
37157;SDS011;23050;51.776;22.638;2024-02-23T12:50:08;25.05;;;16.52;;
37157;SDS011;23050;51.776;22.638;2024-02-23T12:52:43;21.27;;;15.52;;
37157;SDS011;23050;51.776;22.638;2024-02-23T12:58:41;21.08;;;15.27;;
37157;SDS011;23050;51.776;22.638;2024-02-23T13:01:10;23.58;;;17.13;;
37157;SDS011;23050;51.776;22.638;2024-02-23T13:03:37;20.88;;;14.73;;
37157;SDS011;23050;51.776;22.638;2024-02-23T13:06:05;26.98;;;17.85;;
37157;SDS011;23050;51.776;22.638;2024-02-23T13:08:32;23.73;;;15.13;;
37157;SDS011;23050;51.776;22.638;2024-02-23T13:10:59;21.93;;;15.40;;
37157;SDS011;23050;51.776;22.638;2024-02-23T13:13:25;24.30;;;17.00;;
37157;SDS011;23050;51.776;22.638;2024-02-23T13:15:52;23.17;;;17.17;;
37157;SDS011;23050;51.776;22.638;2024-02-23T13:18:20;25.83;;;16.02;;
37157;SDS011;23050;51.776;22.638;2024-02-23T13:20:46;77.68;;;52.65;;
37157;SDS011;23050;51.776;22.638;2024-02-23T13:23:12;32.08;;;21.80;;
37157;SDS011;23050;51.776;22.638;2024-02-23T13:25:40;32.15;;;25.20;;
37157;SDS011;23050;51.776;22.638;2024-02-23T13:28:07;26.10;;;19.77;;
37157;SDS011;23050;51.776;22.638;2024-02-23T13:30:34;75.97;;;47.78;;
37157;SDS011;23050;51.776;22.638;2024-02-23T13:33:01;164.95;;;111.68;;
37157;SDS011;23050;51.776;22.638;2024-02-23T13:35:27;76.07;;;44.97;;
37157;SDS011;23050;51.776;22.638;2024-02-23T13:37:54;72.20;;;41.00;;
37157;SDS011;23050;51.776;22.638;2024-02-23T13:40:20;100.18;;;56.78;;
37157;SDS011;23050;51.776;22.638;2024-02-23T13:42:45;104.85;;;58.42;;
37157;SDS011;23050;51.776;22.638;2024-02-23T13:45:14;129.52;;;72.05;;
37157;SDS011;23050;51.776;22.638;2024-02-23T13:47:41;139.25;;;76.95;;
37157;SDS011;23050;51.776;22.638;2024-02-23T13:50:09;54.25;;;33.95;;
37157;SDS011;23050;51.776;22.638;2024-02-23T13:52:35;70.90;;;42.78;;
37157;SDS011;23050;51.776;22.638;2024-02-23T13:55:01;134.55;;;76.60;;
37157;SDS011;23050;51.776;22.638;2024-02-23T13:57:27;87.32;;;50.33;;
37157;SDS011;23050;51.776;22.638;2024-02-23T13:59:52;106.90;;;71.85;;
37157;SDS011;23050;51.776;22.638;2024-02-23T14:02:25;33.50;;;22.33;;
37157;SDS011;23050;51.776;22.638;2024-02-23T14:04:52;36.58;;;25.05;;
37157;SDS011;23050;51.776;22.638;2024-02-23T14:07:18;29.20;;;21.38;;
37157;SDS011;23050;51.776;22.638;2024-02-23T14:09:44;30.83;;;19.92;;
37157;SDS011;23050;51.776;22.638;2024-02-23T14:12:10;44.08;;;34.53;;
37157;SDS011;23050;51.776;22.638;2024-02-23T14:14:35;51.90;;;34.65;;
37157;SDS011;23050;51.776;22.638;2024-02-23T14:17:01;29.00;;;17.63;;
37157;SDS011;23050;51.776;22.638;2024-02-23T14:19:26;98.57;;;54.72;;
37157;SDS011;23050;51.776;22.638;2024-02-23T14:21:52;61.10;;;39.30;;